Time;durP1;ratioP1;P1;durP2;ratioP2;P2;SDS_P1;SDS_P2;PMS_P1;PMS_P2;Temp;Humidity;BMP_temperature;BMP_pressure;BME280_temperature;BME280_humidity;BME280_pressure;Samples;Min_cycle;Max_cycle;Signal;HPM_P1;HPM_P2
2021/11/19 00:02:00;;;;;;;2.83;2.67;;;7.50;99.90;;;;;;5019947;28;20231;-75
2021/11/19 00:04:29;;;;;;;3.20;2.90;;;7.50;99.90;;;;;;5019453;28;20238;-75
2021/11/19 00:06:57;;;;;;;2.60;2.40;;;7.50;99.90;;;;;;5015054;28;20236;-77
2021/11/19 00:09:26;;;;;;;3.60;3.33;;;7.40;99.90;;;;;;5186345;22;20227;-74
2021/11/19 00:11:54;;;;;;;2.80;2.60;;;7.50;99.90;;;;;;5041268;28;20229;-75
2021/11/19 03:20:50;;;;;;;2.90;2.70;;;6.40;99.90;;;;;;5078836;27;20583;-77
2021/11/19 03:23:17;;;;;;;3.22;2.92;;;6.40;99.90;;;;;;5060826;28;20221;-78
2021/11/19 03:25:45;;;;;;;3.15;2.88;;;6.40;99.90;;;;;;5067862;28;20233;-77
2021/11/19 03:28:16;;;;;;;3.33;3.13;;;6.40;99.90;;;;;;5058708;28;20233;-77
2021/11/19 03:30:45;;;;;;;3.05;2.85;;;6.30;99.90;;;;;;5054237;28;20237;-75
2021/11/19 03:33:14;;;;;;;2.60;2.50;;;6.30;99.90;;;;;;5043683;28;20234;-78
2021/11/19 03:35:41;;;;;;;2.97;2.78;;;6.30;99.90;;;;;;5038996;28;20227;-76
2021/11/19 03:38:10;;;;;;;3.10;2.80;;;6.40;99.90;;;;;;5042482;28;20314;-75
2021/11/19 03:40:41;;;;;;;3.20;3.00;;;6.40;99.90;;;;;;5047018;28;20227;-76
2021/11/19 03:43:16;;;;;;;2.80;2.63;;;6.30;99.90;;;;;;5048025;28;20231;-77
2021/11/19 03:45:48;;;;;;;3.22;3.03;;;6.30;99.90;;;;;;5061396;28;20232;-77
2021/11/19 03:48:15;;;;;;;2.80;2.60;;;6.20;99.90;;;;;;5054001;28;20612;-77
2021/11/19 03:50:45;;;;;;;2.72;2.42;;;6.20;99.90;;;;;;5061249;27;20226;-76
2021/11/19 03:53:15;;;;;;;2.60;2.17;;;6.10;99.90;;;;;;5059651;28;20268;-75
2021/11/19 03:55:46;;;;;;;2.53;2.42;;;6.10;99.90;;;;;;5065136;28;20222;-78
2021/11/19 03:58:14;;;;;;;2.55;2.35;;;6.10;99.90;;;;;;5064807;28;20229;-77
2021/11/19 04:00:45;;;;;;;2.83;2.63;;;6.10;99.90;;;;;;5048122;28;20313;-78
2021/11/19 04:03:15;;;;;;;2.60;2.50;;;6.10;99.90;;;;;;5058559;28;20226;-77
2021/11/19 04:05:42;;;;;;;4.05;3.20;;;6.20;99.90;;;;;;5057080;28;20604;-77
2021/11/19 04:08:09;;;;;;;2.83;2.63;;;6.20;99.90;;;;;;5056464;28;20237;-77
2021/11/19 04:10:38;;;;;;;2.97;2.78;;;6.10;99.90;;;;;;5046128;28;20219;-77
2021/11/19 04:13:08;;;;;;;3.13;2.80;;;6.00;99.90;;;;;;5055970;28;20226;-78
2021/11/19 04:15:37;;;;;;;2.63;2.42;;;6.00;99.90;;;;;;5054930;28;20711;-79
2021/11/19 04:18:05;;;;;;;3.00;2.80;;;6.00;99.90;;;;;;5049056;28;20270;-78
2021/11/19 04:20:33;;;;;;;2.65;2.45;;;6.00;99.90;;;;;;5038749;28;20230;-77
2021/11/19 04:23:00;;;;;;;2.55;2.35;;;6.00;99.90;;;;;;5038705;28;20238;-78
2021/11/19 04:25:28;;;;;;;2.70;2.58;;;6.00;99.90;;;;;;5037666;28;20238;-78
2021/11/19 04:27:57;;;;;;;2.55;2.35;;;6.00;99.90;;;;;;5036240;28;21642;-77
2021/11/19 04:30:26;;;;;;;2.63;2.53;;;6.10;99.90;;;;;;5038766;28;20231;-78
2021/11/19 04:32:55;;;;;;;2.80;2.60;;;6.10;99.90;;;;;;5043215;28;20755;-79
2021/11/19 04:35:22;;;;;;;2.63;2.47;;;6.10;99.90;;;;;;5041796;28;20289;-78
2021/11/19 04:37:50;;;;;;;2.60;2.50;;;6.10;99.90;;;;;;5047105;28;20229;-78
2021/11/19 04:40:18;;;;;;;2.70;2.50;;;6.20;99.90;;;;;;5042711;28;20227;-79
2021/11/19 04:42:46;;;;;;;2.90;2.70;;;6.20;99.90;;;;;;5043202;28;20241;-77
2021/11/19 04:45:18;;;;;;;2.70;2.60;;;6.20;99.90;;;;;;5043552;28;20234;-78
2021/11/19 04:47:45;;;;;;;2.42;2.33;;;6.20;99.90;;;;;;5045856;28;20226;-79
2021/11/19 04:50:14;;;;;;;2.70;2.60;;;6.20;99.90;;;;;;5042490;28;20229;-78
2021/11/19 04:52:41;;;;;;;2.35;2.25;;;6.20;99.90;;;;;;5042084;28;20219;-77
2021/11/19 04:55:10;;;;;;;2.75;2.60;;;6.10;99.90;;;;;;5021724;28;20232;-76
2021/11/19 04:57:37;;;;;;;2.90;2.70;;;6.10;99.90;;;;;;5034806;28;20231;-78
2021/11/19 05:00:08;;;;;;;3.22;2.92;;;5.90;99.90;;;;;;5020536;28;20239;-78
2021/11/19 05:02:37;;;;;;;2.90;2.70;;;5.80;99.90;;;;;;5021398;28;20231;-77
2021/11/19 05:05:05;;;;;;;3.78;3.47;;;5.70;99.90;;;;;;5021622;28;20595;-77
2021/11/19 05:07:32;;;;;;;2.97;2.78;;;5.70;99.90;;;;;;5023350;28;20468;-78
2021/11/19 05:09:59;;;;;;;3.15;2.95;;;5.60;99.90;;;;;;5039921;28;20235;-78
2021/11/19 05:12:30;;;;;;;3.40;3.20;;;5.50;99.90;;;;;;5043036;28;20675;-78
2021/11/19 05:14:57;;;;;;;3.17;2.88;;;5.50;99.90;;;;;;5039817;28;20349;-77
2021/11/19 05:17:24;;;;;;;3.50;3.20;;;5.50;99.90;;;;;;5022218;28;20219;-78
2021/11/19 05:19:53;;;;;;;3.00;2.80;;;5.50;99.90;;;;;;5037036;28;20261;-80
2021/11/19 05:22:20;;;;;;;2.85;2.67;;;5.60;99.90;;;;;;5043378;28;20218;-77
2021/11/19 05:24:49;;;;;;;3.10;2.90;;;5.60;99.90;;;;;;5041513;28;20219;-78
2021/11/19 05:27:16;;;;;;;3.83;3.35;;;5.60;99.90;;;;;;5046672;28;20230;-77
2021/11/19 05:29:43;;;;;;;3.55;3.25;;;5.60;99.90;;;;;;5043608;28;20587;-76
2021/11/19 05:32:11;;;;;;;2.90;2.70;;;5.50;99.90;;;;;;5040684;28;20272;-78
2021/11/19 05:34:39;;;;;;;2.72;2.53;;;5.60;99.90;;;;;;5037753;28;20215;-77
2021/11/19 05:37:08;;;;;;;2.72;2.53;;;5.60;99.90;;;;;;5029085;28;20219;-78
2021/11/19 05:39:35;;;;;;;3.30;3.10;;;5.60;99.90;;;;;;5023690;28;20239;-77
2021/11/19 05:42:03;;;;;;;2.92;2.72;;;5.60;99.90;;;;;;5027726;28;20228;-77
2021/11/19 05:44:31;;;;;;;2.90;2.78;;;5.70;99.90;;;;;;5042251;28;20249;-78
2021/11/19 05:46:59;;;;;;;2.80;2.65;;;5.70;99.90;;;;;;5028904;28;20223;-79
2021/11/19 05:49:26;;;;;;;3.13;2.92;;;5.70;99.90;;;;;;5034858;28;20241;-77
2021/11/19 05:51:55;;;;;;;3.40;3.10;;;5.70;99.90;;;;;;5049964;28;20606;-79
2021/11/19 05:54:26;;;;;;;2.75;2.55;;;5.70;99.90;;;;;;5046489;28;20233;-77
2021/11/19 05:56:54;;;;;;;3.08;2.88;;;5.70;99.90;;;;;;5048559;28;20214;-76
2021/11/19 05:59:21;;;;;;;3.83;3.53;;;5.70;99.90;;;;;;5031434;28;20227;-79
2021/11/19 06:01:48;;;;;;;3.60;3.20;;;5.80;99.90;;;;;;5034271;28;20615;-78
2021/11/19 06:04:16;;;;;;;3.88;3.58;;;5.80;99.90;;;;;;5046416;28;20231;-79
2021/11/19 06:06:44;;;;;;;3.88;3.58;;;5.80;99.90;;;;;;5030517;28;20246;-77
2021/11/19 06:09:16;;;;;;;3.13;2.92;;;5.90;99.90;;;;;;5040861;28;20235;-76
2021/11/19 06:11:54;;;;;;;3.47;3.17;;;5.90;99.90;;;;;;5059653;22;20223;-73
2021/11/19 06:14:25;;;;;;;3.80;3.50;;;5.90;99.90;;;;;;5002936;28;20242;-74
2021/11/19 06:16:58;;;;;;;4.85;3.72;;;5.90;99.90;;;;;;5003287;28;20228;-74
2021/11/19 06:19:30;;;;;;;3.30;3.03;;;5.80;99.90;;;;;;5002716;28;20239;-73
2021/11/19 06:21:59;;;;;;;4.85;4.07;;;5.80;99.90;;;;;;5004852;28;20235;-74
2021/11/19 06:24:30;;;;;;;3.65;3.35;;;5.80;99.90;;;;;;5001372;28;20224;-75
2021/11/19 06:26:59;;;;;;;4.20;3.90;;;5.70;99.90;;;;;;5003879;28;20232;-74
2021/11/19 06:29:27;;;;;;;3.20;3.00;;;5.60;99.90;;;;;;5004746;28;20232;-74
2021/11/19 06:31:56;;;;;;;3.33;3.13;;;5.60;99.90;;;;;;5008067;28;20222;-74
2021/11/19 06:34:24;;;;;;;4.47;3.10;;;5.50;99.90;;;;;;5009012;28;20331;-74
2021/11/19 06:36:52;;;;;;;3.00;2.80;;;5.40;99.90;;;;;;5002490;28;20240;-74
2021/11/19 06:39:20;;;;;;;2.92;2.75;;;5.30;99.90;;;;;;5003192;28;20605;-74
2021/11/19 06:41:47;;;;;;;3.20;3.00;;;5.20;99.90;;;;;;5003709;28;20235;-75
2021/11/19 06:44:16;;;;;;;2.80;2.60;;;5.30;99.90;;;;;;5004918;28;20232;-74
2021/11/19 06:46:44;;;;;;;3.60;3.40;;;5.20;99.90;;;;;;5005714;28;20232;-73
2021/11/19 06:49:12;;;;;;;3.13;2.92;;;5.30;99.90;;;;;;5004124;28;20239;-74
2021/11/19 06:51:40;;;;;;;3.20;3.00;;;5.40;99.90;;;;;;5003783;28;20240;-75
2021/11/19 06:54:09;;;;;;;3.40;3.20;;;5.50;99.90;;;;;;5012047;28;20247;-73
2021/11/19 06:56:36;;;;;;;3.33;3.13;;;5.50;99.90;;;;;;5004372;28;20232;-74
2021/11/19 06:59:05;;;;;;;3.50;3.20;;;5.60;99.90;;;;;;5005403;28;20236;-75
2021/11/19 07:01:34;;;;;;;3.25;3.05;;;5.60;99.90;;;;;;5000775;28;20243;-73
2021/11/19 07:04:01;;;;;;;3.55;3.35;;;5.80;99.90;;;;;;4998651;28;20235;-75
2021/11/19 07:06:30;;;;;;;3.47;3.22;;;5.80;99.90;;;;;;5003156;28;20709;-72
2021/11/19 07:08:57;;;;;;;2.78;2.58;;;5.90;99.90;;;;;;4999420;28;20220;-74
2021/11/19 07:11:26;;;;;;;3.55;3.25;;;5.90;99.90;;;;;;4996634;28;20231;-74
2021/11/19 07:13:54;;;;;;;3.25;3.05;;;6.00;99.90;;;;;;5000943;28;20236;-74
2021/11/19 07:16:22;;;;;;;3.65;3.40;;;6.10;99.90;;;;;;5001693;28;20321;-75
2021/11/19 07:18:51;;;;;;;3.00;2.80;;;6.20;99.90;;;;;;5000466;28;20254;-72
2021/11/19 07:21:18;;;;;;;3.60;3.30;;;6.20;99.90;;;;;;5007500;28;20227;-77
2021/11/19 07:23:46;;;;;;;3.22;2.92;;;6.30;99.90;;;;;;5000637;28;20260;-72
2021/11/19 07:26:13;;;;;;;3.50;3.30;;;6.40;99.90;;;;;;4997478;28;20312;-74
2021/11/19 07:28:41;;;;;;;3.35;3.05;;;6.50;99.90;;;;;;4996566;28;20239;-75
2021/11/19 07:31:10;;;;;;;3.40;3.20;;;6.50;99.90;;;;;;5002931;28;20238;-75
2021/11/19 07:33:39;;;;;;;3.28;3.05;;;6.50;99.90;;;;;;4999960;28;20239;-75
2021/11/19 07:36:09;;;;;;;3.00;2.80;;;6.50;99.90;;;;;;4996185;28;20231;-74
2021/11/19 07:38:37;;;;;;;3.22;3.03;;;6.50;99.90;;;;;;4999825;28;20603;-74
2021/11/19 07:41:04;;;;;;;3.67;3.38;;;6.70;99.90;;;;;;4998830;28;20232;-76
2021/11/19 07:43:33;;;;;;;3.42;3.22;;;6.80;99.90;;;;;;4998703;28;20244;-73
2021/11/19 07:46:01;;;;;;;3.50;3.30;;;6.90;99.90;;;;;;4995826;28;20251;-74
2021/11/19 07:48:32;;;;;;;3.03;2.83;;;7.10;99.90;;;;;;5000390;28;20231;-72
2021/11/19 07:51:02;;;;;;;3.63;3.42;;;7.20;99.90;;;;;;4993979;28;20255;-75
2021/11/19 07:53:31;;;;;;;3.28;2.97;;;7.50;99.90;;;;;;5000439;28;20247;-74
2021/11/19 07:55:59;;;;;;;3.45;3.15;;;7.80;99.90;;;;;;5004771;28;20741;-75
2021/11/19 07:58:28;;;;;;;3.30;3.10;;;8.10;99.90;;;;;;4997337;28;20453;-73
2021/11/19 08:00:57;;;;;;;6.10;5.20;;;8.50;99.90;;;;;;4996829;28;20228;-73
2021/11/19 08:03:24;;;;;;;4.97;4.47;;;8.90;99.90;;;;;;4997665;28;20239;-74
2021/11/19 08:05:54;;;;;;;4.38;3.90;;;9.20;99.90;;;;;;5001219;28;20246;-73
2021/11/19 08:08:23;;;;;;;3.85;3.55;;;9.50;99.90;;;;;;5001274;28;20254;-74
2021/11/19 08:10:53;;;;;;;3.95;3.65;;;9.90;99.90;;;;;;5005431;28;20230;-74
2021/11/19 08:13:21;;;;;;;4.43;4.13;;;10.10;99.90;;;;;;5002082;28;20272;-77
2021/11/19 08:15:49;;;;;;;3.45;3.15;;;10.20;99.90;;;;;;5009985;28;20227;-75
2021/11/19 08:18:19;;;;;;;4.20;3.80;;;10.60;99.90;;;;;;5008146;28;20239;-74
2021/11/19 08:20:49;;;;;;;3.90;3.60;;;11.10;99.90;;;;;;5004979;28;20239;-75
2021/11/19 08:23:19;;;;;;;4.32;3.40;;;11.50;99.90;;;;;;5001749;28;20259;-76
2021/11/19 08:25:47;;;;;;;3.92;3.63;;;11.90;99.90;;;;;;5006458;28;20232;-76
2021/11/19 08:28:17;;;;;;;4.50;4.15;;;12.00;99.90;;;;;;5008849;28;20232;-75
2021/11/19 08:30:47;;;;;;;4.05;3.55;;;12.30;99.90;;;;;;5006504;28;20231;-73
2021/11/19 08:33:17;;;;;;;4.15;3.25;;;12.60;99.90;;;;;;5001729;28;20244;-75
2021/11/19 08:35:45;;;;;;;3.60;3.30;;;12.80;99.90;;;;;;5001280;28;20251;-74
2021/11/19 08:38:15;;;;;;;3.03;2.80;;;13.00;99.90;;;;;;5003353;28;20232;-72
2021/11/19 08:40:45;;;;;;;3.05;2.75;;;13.30;99.90;;;;;;5004830;28;20236;-75
2021/11/19 08:43:17;;;;;;;3.13;2.83;;;13.80;99.90;;;;;;5001635;28;20362;-78
2021/11/19 08:45:45;;;;;;;3.95;3.55;;;14.20;99.90;;;;;;4997937;28;20235;-72
2021/11/19 08:48:13;;;;;;;4.85;3.42;;;14.40;99.90;;;;;;5000584;28;20902;-82
2021/11/19 08:50:42;;;;;;;3.63;3.33;;;14.30;99.90;;;;;;4971954;28;20232;-76
2021/11/19 08:53:13;;;;;;;3.67;3.38;;;14.60;99.90;;;;;;5004104;28;20236;-78
2021/11/19 08:55:41;;;;;;;3.65;3.30;;;14.60;99.90;;;;;;5000796;28;20438;-79
2021/11/19 08:58:08;;;;;;;3.13;2.92;;;15.20;99.90;;;;;;5000405;28;20234;-74
2021/11/19 09:00:38;;;;;;;4.13;3.60;;;15.50;99.90;;;;;;5000147;28;21439;-76
2021/11/19 09:03:09;;;;;;;5.40;4.10;;;15.90;99.90;;;;;;5001308;28;20239;-75
2021/11/19 09:05:39;;;;;;;4.22;3.83;;;16.90;99.90;;;;;;5002280;28;20219;-75
2021/11/19 09:08:08;;;;;;;4.00;3.38;;;17.80;99.90;;;;;;4999881;28;20583;-78
2021/11/19 09:10:36;;;;;;;3.95;3.47;;;19.10;99.90;;;;;;5003213;28;20595;-78
2021/11/19 09:13:04;;;;;;;4.15;3.75;;;20.40;99.90;;;;;;4997939;28;20247;-75
2021/11/19 09:15:31;;;;;;;3.00;2.70;;;21.30;99.90;;;;;;5000732;28;20232;-74
2021/11/19 09:18:24;;;;;;;4.20;3.85;;;21.90;99.90;;;;;;5002918;28;20249;-75
2021/11/19 09:21:04;;;;;;;4.75;4.30;;;22.10;99.90;;;;;;5000499;28;20633;-74
2021/11/19 09:23:34;;;;;;;4.25;3.78;;;22.30;99.90;;;;;;4999881;28;20331;-73
2021/11/19 09:26:06;;;;;;;4.85;3.50;;;22.50;99.90;;;;;;4999509;28;20223;-77
2021/11/19 09:28:37;;;;;;;3.55;3.25;;;22.40;99.90;;;;;;4999209;28;20403;-79
2021/11/19 09:31:07;;;;;;;5.00;3.25;;;22.00;99.90;;;;;;4995150;28;20548;-76
2021/11/19 09:33:36;;;;;;;3.88;3.22;;;21.20;99.90;;;;;;4999335;28;20223;-75
2021/11/19 09:36:05;;;;;;;4.15;3.75;;;20.20;99.90;;;;;;5001644;28;20728;-74
2021/11/19 09:38:32;;;;;;;3.80;3.40;;;18.80;99.90;;;;;;4995868;28;20239;-73
2021/11/19 09:41:11;;;;;;;3.60;3.30;;;17.80;99.90;;;;;;4997396;28;20239;-78
2021/11/19 09:43:44;;;;;;;5.88;3.60;;;17.10;99.90;;;;;;4998915;28;20236;-76
2021/11/19 09:46:26;;;;;;;3.85;3.55;;;16.80;99.90;;;;;;4995972;28;20310;-74
2021/11/19 09:49:06;;;;;;;5.65;4.03;;;16.70;99.90;;;;;;5001528;28;20602;-75
2021/11/19 09:52:34;;;;;;;4.85;3.90;;;16.90;99.90;;;;;;4996888;28;20596;-75
2021/11/19 09:55:34;;;;;;;5.07;4.18;;;16.80;99.90;;;;;;4911891;28;20279;-75
2021/11/19 09:58:37;;;;;;;4.20;3.53;;;16.80;99.90;;;;;;4940362;28;20249;-75
2021/11/19 10:01:53;;;;;;;5.47;3.28;;;16.90;99.90;;;;;;4993806;28;20216;-75
2021/11/19 10:04:57;;;;;;;4.10;3.75;;;17.30;99.90;;;;;;4994755;28;20228;-74
2021/11/19 10:07:33;;;;;;;4.72;3.35;;;17.30;99.90;;;;;;4991409;28;20235;-76
2021/11/19 10:10:36;;;;;;;7.53;3.58;;;17.30;99.90;;;;;;4992251;28;20310;-76
2021/11/19 10:13:11;;;;;;;5.35;3.83;;;17.20;99.90;;;;;;4993079;28;20227;-75
2021/11/19 10:15:51;;;;;;;3.75;3.40;;;17.30;99.90;;;;;;4996037;28;20757;-77
2021/11/19 10:18:30;;;;;;;4.18;3.67;;;17.70;99.90;;;;;;4995727;28;20250;-75
2021/11/19 10:21:05;;;;;;;4.95;3.47;;;17.90;99.90;;;;;;4994309;28;20737;-74
2021/11/19 10:23:35;;;;;;;3.80;3.50;;;17.70;99.90;;;;;;4997651;28;20258;-75
2021/11/19 10:26:05;;;;;;;3.15;2.95;;;17.20;99.90;;;;;;4994667;28;20246;-75
2021/11/19 10:28:38;;;;;;;4.15;3.22;;;16.80;99.90;;;;;;4991697;28;20236;-73
2021/11/19 10:31:07;;;;;;;3.67;3.00;;;16.80;99.90;;;;;;4996774;28;20236;-74
2021/11/19 10:33:39;;;;;;;4.75;3.53;;;16.90;99.90;;;;;;4994653;28;20752;-78
2021/11/19 10:36:17;;;;;;;3.65;3.35;;;17.10;99.90;;;;;;5001370;28;20257;-75
2021/11/19 10:39:29;;;;;;;3.30;3.00;;;17.00;99.90;;;;;;4994871;28;20247;-77
2021/11/19 10:42:24;;;;;;;3.35;3.05;;;17.10;99.90;;;;;;4995994;28;20694;-73
2021/11/19 10:45:12;;;;;;;3.85;2.95;;;17.20;99.90;;;;;;4996937;28;20231;-74
2021/11/19 10:48:13;;;;;;;3.60;3.08;;;17.10;99.90;;;;;;4997960;28;20246;-77
2021/11/19 10:51:22;;;;;;;3.53;2.63;;;17.00;99.90;;;;;;4997107;28;20738;-78
2021/11/19 10:54:29;;;;;;;4.15;3.25;;;17.30;99.90;;;;;;4999223;28;20227;-75
2021/11/19 10:57:05;;;;;;;3.78;2.90;;;17.50;99.90;;;;;;5001103;28;20782;-74
2021/11/19 10:59:38;;;;;;;7.57;6.22;;;17.80;99.90;;;;;;4996435;28;20732;-74
2021/11/19 11:02:35;;;;;;;5.65;4.80;;;17.80;99.90;;;;;;4993038;28;20228;-74
2021/11/19 11:05:11;;;;;;;4.10;3.63;;;17.60;99.90;;;;;;4998308;28;20652;-73
2021/11/19 11:07:42;;;;;;;4.00;3.60;;;17.40;99.90;;;;;;4998347;28;20235;-75
2021/11/19 11:10:12;;;;;;;3.90;3.53;;;16.80;99.90;;;;;;4994138;28;20223;-75
2021/11/19 11:12:48;;;;;;;4.30;2.85;;;16.60;99.90;;;;;;5000378;28;21226;-77
2021/11/19 11:15:28;;;;;;;3.63;3.20;;;16.40;99.90;;;;;;4995032;28;20259;-75
2021/11/19 11:18:17;;;;;;;4.03;2.72;;;16.40;99.90;;;;;;4998560;28;20273;-74
2021/11/19 11:20:58;;;;;;;2.80;2.60;;;16.50;99.90;;;;;;4998443;28;20246;-77
2021/11/19 11:23:29;;;;;;;3.97;2.72;;;16.60;99.90;;;;;;5002663;28;20316;-76
2021/11/19 11:26:03;;;;;;;3.15;2.85;;;16.50;99.90;;;;;;4997485;28;20830;-76
2021/11/19 11:28:43;;;;;;;2.65;2.45;;;16.20;99.90;;;;;;4994302;28;20230;-74
2021/11/19 11:31:22;;;;;;;3.10;2.90;;;16.20;99.90;;;;;;5000161;28;20220;-74
2021/11/19 11:33:55;;;;;;;3.28;2.63;;;16.40;99.90;;;;;;4997004;28;20239;-75
2021/11/19 11:36:31;;;;;;;3.03;2.72;;;16.40;99.90;;;;;;5003659;28;20223;-74
2021/11/19 11:39:08;;;;;;;2.60;2.40;;;16.40;99.90;;;;;;4995807;28;20238;-76
2021/11/19 11:41:52;;;;;;;7.30;2.85;;;16.40;99.90;;;;;;5001505;28;20219;-77
2021/11/19 11:44:22;;;;;;;2.80;2.60;;;16.30;99.90;;;;;;4987324;28;20318;-80
2021/11/19 11:47:02;;;;;;;6.20;3.03;;;16.40;99.90;;;;;;5003925;28;20228;-75
2021/11/19 11:49:48;;;;;;;3.67;2.80;;;16.30;99.90;;;;;;4992104;28;21907;-76
2021/11/19 11:52:53;;;;;;;3.30;2.92;;;16.10;99.90;;;;;;5001740;28;20243;-76
2021/11/19 11:55:27;;;;;;;4.53;3.40;;;16.00;99.90;;;;;;4995167;28;20227;-75
2021/11/19 11:58:05;;;;;;;3.47;3.05;;;15.90;99.90;;;;;;5000059;28;20220;-75
2021/11/19 12:00:41;;;;;;;5.50;4.85;;;15.90;99.90;;;;;;5001212;28;20776;-78
2021/11/19 12:03:28;;;;;;;5.32;4.40;;;15.80;99.90;;;;;;5001033;28;20238;-75
2021/11/19 12:05:59;;;;;;;5.00;3.88;;;15.90;99.90;;;;;;4997762;28;20871;-75
2021/11/19 12:08:42;;;;;;;3.90;3.50;;;15.70;99.90;;;;;;4996435;28;20231;-75
2021/11/19 12:11:45;;;;;;;4.15;3.20;;;15.70;99.90;;;;;;4997330;28;20973;-76
2021/11/19 12:14:36;;;;;;;3.17;2.88;;;15.70;99.90;;;;;;4988159;28;20247;-79
2021/11/19 12:17:16;;;;;;;3.35;2.85;;;15.70;99.90;;;;;;4996085;28;20222;-77
2021/11/19 12:19:46;;;;;;;3.40;3.10;;;15.80;99.90;;;;;;4996121;28;20247;-76
2021/11/19 12:22:18;;;;;;;3.55;3.10;;;15.90;99.90;;;;;;4998438;28;22129;-76
2021/11/19 12:24:52;;;;;;;3.22;2.80;;;15.80;99.90;;;;;;4995730;28;20231;-75
2021/11/19 12:27:34;;;;;;;4.13;2.80;;;15.70;99.90;;;;;;4994451;28;20456;-77
2021/11/19 12:30:20;;;;;;;2.85;2.65;;;15.70;99.90;;;;;;4994665;28;20224;-73
2021/11/19 12:32:53;;;;;;;4.38;2.85;;;15.80;99.90;;;;;;4996457;28;20267;-75
2021/11/19 12:35:25;;;;;;;3.80;3.13;;;16.00;99.90;;;;;;5001320;28;20235;-73
2021/11/19 12:38:04;;;;;;;3.22;2.95;;;16.00;99.90;;;;;;4995422;28;20242;-76
2021/11/19 12:40:38;;;;;;;3.95;3.53;;;16.00;99.90;;;;;;4995663;28;20598;-74
2021/11/19 12:43:22;;;;;;;3.33;3.03;;;15.90;99.90;;;;;;4996866;28;20224;-75
2021/11/19 12:45:55;;;;;;;3.20;2.90;;;15.80;99.90;;;;;;4997711;28;21466;-78
2021/11/19 12:48:35;;;;;;;3.92;2.80;;;15.90;99.90;;;;;;4989670;28;20608;-74
2021/11/19 12:51:14;;;;;;;3.60;2.95;;;16.00;99.90;;;;;;5006668;28;20277;-74
2021/11/19 12:53:53;;;;;;;3.72;2.78;;;16.10;99.90;;;;;;4982394;28;20239;-76
2021/11/19 12:56:24;;;;;;;3.08;2.78;;;16.20;99.90;;;;;;4994527;28;20219;-74
2021/11/19 12:59:11;;;;;;;3.90;3.00;;;16.10;99.90;;;;;;4994445;28;20235;-74
2021/11/19 13:01:42;;;;;;;4.63;3.17;;;16.10;99.90;;;;;;4997786;28;20540;-76
2021/11/19 13:04:31;;;;;;;3.88;3.05;;;15.90;99.90;;;;;;5034112;22;20575;-75
2021/11/19 13:07:06;;;;;;;3.40;3.10;;;15.80;99.90;;;;;;5041253;28;20287;-72
2021/11/19 13:09:53;;;;;;;3.85;3.10;;;15.60;99.90;;;;;;5044018;28;20455;-75
2021/11/19 13:12:30;;;;;;;3.17;2.90;;;15.70;99.90;;;;;;5047655;28;20233;-73
2021/11/19 13:15:34;;;;;;;3.38;2.95;;;15.70;99.90;;;;;;5041487;28;20597;-76
2021/11/19 13:18:25;;;;;;;3.20;2.50;;;15.90;99.90;;;;;;5044682;28;20222;-73
2021/11/19 13:20:58;;;;;;;4.85;2.83;;;16.20;99.90;;;;;;5042267;28;20211;-74
2021/11/19 13:23:48;;;;;;;3.90;3.20;;;16.40;99.90;;;;;;5045427;28;20230;-75
2021/11/19 13:26:39;;;;;;;4.60;3.28;;;16.30;99.90;;;;;;5043486;28;20719;-76
2021/11/19 13:29:29;;;;;;;3.83;3.25;;;15.90;99.90;;;;;;5036989;28;20215;-75
2021/11/19 13:31:56;;;;;;;2.80;2.60;;;15.70;99.90;;;;;;5042239;28;20214;-74
2021/11/19 13:34:45;;;;;;;2.80;2.60;;;15.60;99.90;;;;;;5043921;28;20542;-75
2021/11/19 13:37:25;;;;;;;3.20;2.90;;;15.70;99.90;;;;;;5038894;28;20235;-75
2021/11/19 13:39:57;;;;;;;3.20;2.90;;;15.80;99.90;;;;;;5045686;28;20232;-74
2021/11/19 13:42:44;;;;;;;2.83;2.63;;;16.00;99.90;;;;;;5043726;28;20241;-75
2021/11/19 13:45:36;;;;;;;3.30;3.00;;;16.00;99.90;;;;;;5049028;28;20221;-73
2021/11/19 13:48:22;;;;;;;3.15;2.40;;;16.00;99.90;;;;;;5043372;28;20237;-76
2021/11/19 13:51:31;;;;;;;3.63;2.92;;;15.80;99.90;;;;;;5018333;28;20301;-77
2021/11/19 13:54:27;;;;;;;3.72;3.10;;;15.50;99.90;;;;;;4920071;28;20244;-76
2021/11/19 13:57:20;;;;;;;3.20;2.90;;;15.10;99.90;;;;;;5047453;28;20226;-75
2021/11/19 14:00:00;;;;;;;3.28;2.97;;;14.80;99.90;;;;;;5041275;28;20234;-76
2021/11/19 14:02:32;;;;;;;3.03;2.72;;;14.50;99.90;;;;;;5043719;28;20608;-76
2021/11/19 14:05:01;;;;;;;2.72;2.53;;;14.40;99.90;;;;;;5043071;28;20647;-76
2021/11/19 14:07:30;;;;;;;2.83;2.63;;;14.20;99.90;;;;;;5047356;28;20906;-75
2021/11/19 14:10:17;;;;;;;2.58;2.38;;;14.00;99.90;;;;;;5046219;28;20219;-76
2021/11/19 14:12:52;;;;;;;2.85;2.65;;;13.70;99.90;;;;;;5050242;28;20634;-74
2021/11/19 14:15:26;;;;;;;2.67;2.47;;;13.60;99.90;;;;;;5043376;28;20225;-75
2021/11/19 14:18:08;;;;;;;2.63;2.42;;;13.50;99.90;;;;;;5045722;28;20596;-74
2021/11/19 14:23:24;;;;;;;2.55;2.35;;;13.30;99.90;;;;;;5043853;28;20625;-77
2021/11/19 14:25:57;;;;;;;4.30;2.58;;;13.10;99.90;;;;;;5044776;28;20234;-74
2021/11/19 14:28:28;;;;;;;3.60;2.70;;;13.10;99.90;;;;;;5044176;28;20210;-75
2021/11/19 14:31:02;;;;;;;2.58;2.38;;;12.90;99.90;;;;;;5046156;28;20226;-76
2021/11/19 14:33:34;;;;;;;3.13;2.83;;;12.90;99.90;;;;;;5048702;28;20731;-76
2021/11/19 14:36:15;;;;;;;2.75;2.22;;;12.80;99.90;;;;;;5043577;28;20307;-74
2021/11/19 14:38:46;;;;;;;3.03;2.20;;;12.70;99.90;;;;;;5046328;28;20225;-76
2021/11/19 14:41:20;;;;;;;2.65;2.42;;;12.70;99.90;;;;;;5043686;28;21466;-76
2021/11/19 14:43:50;;;;;;;2.92;2.72;;;12.70;99.90;;;;;;5042890;28;20225;-76
2021/11/19 14:46:20;;;;;;;3.17;2.80;;;12.70;99.90;;;;;;5042797;28;20238;-75
2021/11/19 14:48:53;;;;;;;3.22;2.92;;;12.60;99.90;;;;;;5046719;28;20541;-76
2021/11/19 14:51:37;;;;;;;7.30;2.95;;;12.50;99.90;;;;;;5046086;28;20221;-76
2021/11/19 14:54:08;;;;;;;2.67;2.42;;;12.50;99.90;;;;;;5032899;28;20226;-76
2021/11/19 14:56:51;;;;;;;3.42;2.80;;;12.40;99.90;;;;;;5039334;28;20230;-76
2021/11/19 14:59:21;;;;;;;3.45;2.90;;;12.40;99.90;;;;;;5041498;28;20667;-75
2021/11/19 15:01:54;;;;;;;3.22;2.88;;;12.30;99.90;;;;;;5044464;28;20775;-75
2021/11/19 15:04:25;;;;;;;4.75;2.88;;;12.30;99.90;;;;;;5044343;28;20570;-75
2021/11/19 15:07:05;;;;;;;2.53;2.33;;;12.20;99.90;;;;;;5047215;28;20273;-76
2021/11/19 15:09:53;;;;;;;2.80;2.60;;;12.20;99.90;;;;;;5023018;28;20222;-77
2021/11/19 15:12:32;;;;;;;3.95;3.10;;;12.10;99.90;;;;;;5050951;28;20228;-75
2021/11/19 15:15:19;;;;;;;3.33;2.90;;;12.10;99.90;;;;;;5044721;28;20213;-75
2021/11/19 15:17:49;;;;;;;4.15;3.20;;;12.10;99.90;;;;;;5050113;28;20237;-77
2021/11/19 15:20:35;;;;;;;2.70;2.50;;;11.90;99.90;;;;;;5044819;28;20222;-77
2021/11/19 15:23:08;;;;;;;2.15;2.05;;;11.90;99.90;;;;;;5044701;28;20229;-76
2021/11/19 15:25:41;;;;;;;2.38;2.20;;;11.80;99.90;;;;;;5042885;28;20234;-76
2021/11/19 15:28:22;;;;;;;2.53;2.33;;;11.70;99.90;;;;;;5043807;28;20222;-76
2021/11/19 15:31:06;;;;;;;2.70;2.50;;;11.60;99.90;;;;;;5043611;28;20254;-76
2021/11/19 15:33:43;;;;;;;2.97;2.67;;;11.60;99.90;;;;;;5048718;28;20378;-75
2021/11/19 15:36:18;;;;;;;2.60;2.40;;;11.50;99.90;;;;;;5043108;28;20309;-74
2021/11/19 15:38:47;;;;;;;2.97;2.53;;;11.50;99.90;;;;;;5051852;28;20554;-77
2021/11/19 15:41:18;;;;;;;3.13;2.85;;;11.40;99.90;;;;;;5048573;28;20262;-76
2021/11/19 15:43:49;;;;;;;3.72;3.33;;;11.30;99.90;;;;;;5043858;28;20707;-77
2021/11/19 15:46:20;;;;;;;4.22;3.83;;;11.30;99.90;;;;;;5044135;28;20222;-76
2021/11/19 15:48:50;;;;;;;5.43;4.35;;;11.30;99.90;;;;;;5048572;28;20253;-76
2021/11/19 15:51:18;;;;;;;5.32;3.85;;;11.20;99.90;;;;;;5041846;28;20230;-75
2021/11/19 15:53:50;;;;;;;5.50;3.85;;;11.20;99.90;;;;;;5051956;28;20241;-76
2021/11/19 15:56:35;;;;;;;4.65;4.20;;;11.10;99.90;;;;;;5045276;28;20276;-76
2021/11/19 15:59:15;;;;;;;5.50;3.78;;;11.10;99.90;;;;;;5048296;28;20214;-77
2021/11/19 16:01:50;;;;;;;5.05;3.08;;;11.00;99.90;;;;;;5043788;28;20256;-77
2021/11/19 16:05:15;;;;;;;3.55;3.25;;;11.00;99.90;;;;;;5048053;28;20229;-76
2021/11/19 16:07:55;;;;;;;3.20;2.83;;;11.00;99.90;;;;;;5045602;28;20206;-76
2021/11/19 16:10:54;;;;;;;3.10;2.88;;;11.00;99.90;;;;;;5048569;28;20226;-76
2021/11/19 16:13:24;;;;;;;3.10;2.80;;;10.90;99.90;;;;;;5026136;28;20305;-77
2021/11/19 16:15:56;;;;;;;4.55;2.90;;;10.90;99.90;;;;;;5048640;28;20222;-76
2021/11/19 16:18:25;;;;;;;3.00;2.80;;;10.80;99.90;;;;;;5044904;28;20540;-76
2021/11/19 16:20:54;;;;;;;3.17;2.88;;;10.80;99.90;;;;;;5048870;28;20241;-76
2021/11/19 16:23:22;;;;;;;3.35;3.05;;;10.70;99.90;;;;;;5051902;28;20251;-78
2021/11/19 16:25:53;;;;;;;3.53;3.22;;;10.60;99.90;;;;;;5042528;28;20402;-77
2021/11/19 16:28:21;;;;;;;3.08;2.85;;;10.60;99.90;;;;;;5052795;28;20222;-78
2021/11/19 16:30:50;;;;;;;3.60;3.30;;;10.50;99.90;;;;;;5047768;28;20234;-76
2021/11/19 16:33:20;;;;;;;4.15;3.22;;;10.50;99.90;;;;;;5052493;28;20639;-77
2021/11/19 16:35:48;;;;;;;3.10;2.90;;;10.50;99.90;;;;;;5047654;28;20239;-77
2021/11/19 16:38:17;;;;;;;3.35;3.08;;;10.50;99.90;;;;;;5056192;28;20730;-77